sensor_id;sensor_type;location;lat;lon;timestamp;temperature;humidity
30069;DHT22;16894;49.456;10.644;2022-08-19T00:01:22;20.00;99.90
30069;DHT22;16894;49.456;10.644;2022-08-19T00:03:48;20.00;99.90
30069;DHT22;16894;49.456;10.644;2022-08-19T00:06:14;19.90;99.90
30069;DHT22;16894;49.456;10.644;2022-08-19T00:08:40;19.90;99.90
30069;DHT22;16894;49.456;10.644;2022-08-19T00:11:06;19.90;99.90
30069;DHT22;16894;49.456;10.644;2022-08-19T00:13:33;19.90;99.90
30069;DHT22;16894;49.456;10.644;2022-08-19T00:15:58;19.90;99.90
30069;DHT22;16894;49.456;10.644;2022-08-19T00:18:26;19.90;99.90
30069;DHT22;16894;49.456;10.644;2022-08-19T00:20:53;19.80;99.90
30069;DHT22;16894;49.456;10.644;2022-08-19T00:23:19;19.80;99.90
30069;DHT22;16894;49.456;10.644;2022-08-19T00:25:45;19.80;99.90
30069;DHT22;16894;49.456;10.644;2022-08-19T00:28:10;19.80;99.90
30069;DHT22;16894;49.456;10.644;2022-08-19T00:30:36;19.80;99.90
30069;DHT22;16894;49.456;10.644;2022-08-19T00:33:02;19.80;99.90
30069;DHT22;16894;49.456;10.644;2022-08-19T00:35:28;19.70;99.90
30069;DHT22;16894;49.456;10.644;2022-08-19T00:37:54;19.70;99.90
30069;DHT22;16894;49.456;10.644;2022-08-19T00:40:20;19.60;99.90
30069;DHT22;16894;49.456;10.644;2022-08-19T00:42:46;19.50;99.90
30069;DHT22;16894;49.456;10.644;2022-08-19T00:45:16;19.50;99.90
30069;DHT22;16894;49.456;10.644;2022-08-19T00:47:43;19.40;99.90
30069;DHT22;16894;49.456;10.644;2022-08-19T00:50:10;19.40;99.90
30069;DHT22;16894;49.456;10.644;2022-08-19T00:52:41;19.30;99.90
30069;DHT22;16894;49.456;10.644;2022-08-19T00:55:13;19.20;99.90
30069;DHT22;16894;49.456;10.644;2022-08-19T00:57:43;19.10;99.90
30069;DHT22;16894;49.456;10.644;2022-08-19T01:00:13;19.10;99.90
30069;DHT22;16894;49.456;10.644;2022-08-19T01:02:41;19.10;99.90
30069;DHT22;16894;49.456;10.644;2022-08-19T01:05:14;19.00;99.90
30069;DHT22;16894;49.456;10.644;2022-08-19T01:07:42;19.00;99.90
30069;DHT22;16894;49.456;10.644;2022-08-19T01:10:13;18.90;99.90
30069;DHT22;16894;49.456;10.644;2022-08-19T01:12:40;18.90;99.90
30069;DHT22;16894;49.456;10.644;2022-08-19T01:15:07;18.90;99.90
30069;DHT22;16894;49.456;10.644;2022-08-19T01:17:35;18.90;99.90
30069;DHT22;16894;49.456;10.644;2022-08-19T01:20:03;19.00;99.90
30069;DHT22;16894;49.456;10.644;2022-08-19T01:22:43;19.00;99.90
30069;DHT22;16894;49.456;10.644;2022-08-19T01:25:09;19.10;99.90
30069;DHT22;16894;49.456;10.644;2022-08-19T01:27:40;19.20;99.90
30069;DHT22;16894;49.456;10.644;2022-08-19T01:30:08;19.20;99.90
30069;DHT22;16894;49.456;10.644;2022-08-19T01:32:33;19.30;99.90
30069;DHT22;16894;49.456;10.644;2022-08-19T01:35:00;19.30;99.90
30069;DHT22;16894;49.456;10.644;2022-08-19T01:37:27;19.40;99.90
30069;DHT22;16894;49.456;10.644;2022-08-19T01:39:52;19.30;99.90
30069;DHT22;16894;49.456;10.644;2022-08-19T01:42:18;19.40;99.90
30069;DHT22;16894;49.456;10.644;2022-08-19T01:44:45;19.40;99.90
30069;DHT22;16894;49.456;10.644;2022-08-19T01:47:11;19.40;99.90
30069;DHT22;16894;49.456;10.644;2022-08-19T01:49:36;19.50;99.90
30069;DHT22;16894;49.456;10.644;2022-08-19T01:52:03;19.40;99.90
30069;DHT22;16894;49.456;10.644;2022-08-19T01:54:28;19.30;99.90
30069;DHT22;16894;49.456;10.644;2022-08-19T01:57:01;19.40;99.90
30069;DHT22;16894;49.456;10.644;2022-08-19T01:59:28;19.50;99.90
30069;DHT22;16894;49.456;10.644;2022-08-19T02:01:54;19.50;99.90
30069;DHT22;16894;49.456;10.644;2022-08-19T02:04:20;19.50;99.90
30069;DHT22;16894;49.456;10.644;2022-08-19T02:06:46;19.50;99.90
30069;DHT22;16894;49.456;10.644;2022-08-19T02:09:11;19.50;99.90
30069;DHT22;16894;49.456;10.644;2022-08-19T02:11:38;19.60;99.90
30069;DHT22;16894;49.456;10.644;2022-08-19T02:14:06;19.50;99.90
30069;DHT22;16894;49.456;10.644;2022-08-19T02:16:33;19.50;99.90
30069;DHT22;16894;49.456;10.644;2022-08-19T02:18:59;19.50;99.90
30069;DHT22;16894;49.456;10.644;2022-08-19T02:21:29;19.50;99.90
30069;DHT22;16894;49.456;10.644;2022-08-19T02:23:54;19.50;99.90
30069;DHT22;16894;49.456;10.644;2022-08-19T02:26:21;19.40;99.90
30069;DHT22;16894;49.456;10.644;2022-08-19T02:28:47;19.40;99.90
30069;DHT22;16894;49.456;10.644;2022-08-19T02:31:16;19.50;99.90
30069;DHT22;16894;49.456;10.644;2022-08-19T02:33:43;19.40;99.90
30069;DHT22;16894;49.456;10.644;2022-08-19T02:36:10;19.50;99.90
30069;DHT22;16894;49.456;10.644;2022-08-19T02:38:36;19.50;99.90
30069;DHT22;16894;49.456;10.644;2022-08-19T02:41:05;19.50;99.90
30069;DHT22;16894;49.456;10.644;2022-08-19T02:43:32;19.40;99.90
30069;DHT22;16894;49.456;10.644;2022-08-19T02:46:02;19.50;99.90
30069;DHT22;16894;49.456;10.644;2022-08-19T02:48:28;19.50;99.90
30069;DHT22;16894;49.456;10.644;2022-08-19T02:50:53;19.50;99.90
30069;DHT22;16894;49.456;10.644;2022-08-19T02:53:24;19.60;99.90
30069;DHT22;16894;49.456;10.644;2022-08-19T02:55:50;19.50;99.90
30069;DHT22;16894;49.456;10.644;2022-08-19T02:58:17;19.50;99.90
30069;DHT22;16894;49.456;10.644;2022-08-19T03:00:53;19.50;99.90
30069;DHT22;16894;49.456;10.644;2022-08-19T03:03:20;19.50;99.90
30069;DHT22;16894;49.456;10.644;2022-08-19T03:05:46;19.50;99.90
30069;DHT22;16894;49.456;10.644;2022-08-19T03:08:13;19.50;99.90
30069;DHT22;16894;49.456;10.644;2022-08-19T03:10:42;19.50;99.90
30069;DHT22;16894;49.456;10.644;2022-08-19T03:13:11;19.50;99.90
30069;DHT22;16894;49.456;10.644;2022-08-19T03:15:42;19.40;99.90
30069;DHT22;16894;49.456;10.644;2022-08-19T03:18:08;19.40;99.90
30069;DHT22;16894;49.456;10.644;2022-08-19T03:20:39;19.30;99.90
30069;DHT22;16894;49.456;10.644;2022-08-19T03:23:05;19.30;99.90
30069;DHT22;16894;49.456;10.644;2022-08-19T03:25:37;19.30;99.90
30069;DHT22;16894;49.456;10.644;2022-08-19T03:28:03;19.20;99.90
30069;DHT22;16894;49.456;10.644;2022-08-19T03:30:28;19.30;99.90
30069;DHT22;16894;49.456;10.644;2022-08-19T03:32:54;19.30;99.90
30069;DHT22;16894;49.456;10.644;2022-08-19T03:35:19;19.30;99.90
30069;DHT22;16894;49.456;10.644;2022-08-19T03:37:45;19.30;99.90
30069;DHT22;16894;49.456;10.644;2022-08-19T03:40:11;19.30;99.90
30069;DHT22;16894;49.456;10.644;2022-08-19T03:42:36;19.40;99.90
30069;DHT22;16894;49.456;10.644;2022-08-19T03:45:02;19.40;99.90
30069;DHT22;16894;49.456;10.644;2022-08-19T03:47:28;19.40;99.90
30069;DHT22;16894;49.456;10.644;2022-08-19T03:49:55;19.40;99.90
30069;DHT22;16894;49.456;10.644;2022-08-19T03:52:21;19.40;99.90
30069;DHT22;16894;49.456;10.644;2022-08-19T03:54:46;19.30;99.90
30069;DHT22;16894;49.456;10.644;2022-08-19T03:57:12;19.30;99.90
30069;DHT22;16894;49.456;10.644;2022-08-19T03:59:38;19.20;99.90
30069;DHT22;16894;49.456;10.644;2022-08-19T04:02:08;19.20;99.90
30069;DHT22;16894;49.456;10.644;2022-08-19T04:04:39;19.30;99.90
30069;DHT22;16894;49.456;10.644;2022-08-19T04:07:05;19.30;99.90
30069;DHT22;16894;49.456;10.644;2022-08-19T04:09:32;19.30;99.90
30069;DHT22;16894;49.456;10.644;2022-08-19T04:11:58;19.30;99.90
30069;DHT22;16894;49.456;10.644;2022-08-19T04:14:27;19.30;99.90
30069;DHT22;16894;49.456;10.644;2022-08-19T04:16:55;19.30;99.90
30069;DHT22;16894;49.456;10.644;2022-08-19T04:19:21;19.40;99.90
30069;DHT22;16894;49.456;10.644;2022-08-19T04:21:50;19.40;99.90
30069;DHT22;16894;49.456;10.644;2022-08-19T04:24:17;19.40;99.90
30069;DHT22;16894;49.456;10.644;2022-08-19T04:26:43;19.40;99.90
30069;DHT22;16894;49.456;10.644;2022-08-19T04:29:12;19.40;99.90
30069;DHT22;16894;49.456;10.644;2022-08-19T04:31:40;19.50;99.90
30069;DHT22;16894;49.456;10.644;2022-08-19T04:34:08;19.50;99.90
30069;DHT22;16894;49.456;10.644;2022-08-19T04:36:35;19.50;99.90
30069;DHT22;16894;49.456;10.644;2022-08-19T04:39:06;19.50;99.90
30069;DHT22;16894;49.456;10.644;2022-08-19T04:41:33;19.50;99.90
30069;DHT22;16894;49.456;10.644;2022-08-19T04:44:17;19.50;99.90
30069;DHT22;16894;49.456;10.644;2022-08-19T04:46:45;19.40;99.90
30069;DHT22;16894;49.456;10.644;2022-08-19T04:49:11;19.30;99.90
30069;DHT22;16894;49.456;10.644;2022-08-19T04:51:41;19.40;99.90
30069;DHT22;16894;49.456;10.644;2022-08-19T04:54:08;19.40;99.90
30069;DHT22;16894;49.456;10.644;2022-08-19T04:56:34;19.40;99.90
30069;DHT22;16894;49.456;10.644;2022-08-19T04:58:59;19.50;99.90
30069;DHT22;16894;49.456;10.644;2022-08-19T05:01:29;19.50;99.90
30069;DHT22;16894;49.456;10.644;2022-08-19T05:03:56;19.50;99.90
30069;DHT22;16894;49.456;10.644;2022-08-19T05:06:23;19.50;99.90
30069;DHT22;16894;49.456;10.644;2022-08-19T05:08:49;19.50;99.90
30069;DHT22;16894;49.456;10.644;2022-08-19T05:11:27;19.50;99.90
30069;DHT22;16894;49.456;10.644;2022-08-19T05:13:54;19.50;99.90
30069;DHT22;16894;49.456;10.644;2022-08-19T05:16:22;19.60;99.90
30069;DHT22;16894;49.456;10.644;2022-08-19T05:18:50;19.60;99.90
30069;DHT22;16894;49.456;10.644;2022-08-19T05:21:34;19.60;99.90
30069;DHT22;16894;49.456;10.644;2022-08-19T05:24:20;19.60;99.90
30069;DHT22;16894;49.456;10.644;2022-08-19T05:26:48;19.60;99.90
30069;DHT22;16894;49.456;10.644;2022-08-19T05:29:18;19.60;99.90
30069;DHT22;16894;49.456;10.644;2022-08-19T05:31:45;19.60;99.90
30069;DHT22;16894;49.456;10.644;2022-08-19T05:34:11;19.60;99.90
30069;DHT22;16894;49.456;10.644;2022-08-19T05:36:39;19.60;99.90
30069;DHT22;16894;49.456;10.644;2022-08-19T05:39:12;19.70;99.90
30069;DHT22;16894;49.456;10.644;2022-08-19T05:41:47;19.60;99.90
30069;DHT22;16894;49.456;10.644;2022-08-19T05:44:14;19.70;99.90
30069;DHT22;16894;49.456;10.644;2022-08-19T05:46:43;19.70;99.90
30069;DHT22;16894;49.456;10.644;2022-08-19T05:49:09;19.80;99.90
30069;DHT22;16894;49.456;10.644;2022-08-19T05:51:36;19.70;99.90
30069;DHT22;16894;49.456;10.644;2022-08-19T05:54:03;19.70;99.90
30069;DHT22;16894;49.456;10.644;2022-08-19T05:56:30;19.70;99.90
30069;DHT22;16894;49.456;10.644;2022-08-19T05:58:57;19.70;99.90
30069;DHT22;16894;49.456;10.644;2022-08-19T06:01:24;19.70;99.90
30069;DHT22;16894;49.456;10.644;2022-08-19T06:03:51;19.80;99.90
30069;DHT22;16894;49.456;10.644;2022-08-19T06:06:17;19.70;99.90
30069;DHT22;16894;49.456;10.644;2022-08-19T06:08:42;19.70;99.90
30069;DHT22;16894;49.456;10.644;2022-08-19T06:11:17;19.70;99.90
30069;DHT22;16894;49.456;10.644;2022-08-19T06:13:44;19.70;99.90
30069;DHT22;16894;49.456;10.644;2022-08-19T06:16:13;19.80;99.90
30069;DHT22;16894;49.456;10.644;2022-08-19T06:18:44;19.80;99.90
30069;DHT22;16894;49.456;10.644;2022-08-19T06:21:10;19.80;99.90
30069;DHT22;16894;49.456;10.644;2022-08-19T06:23:36;19.90;99.90
30069;DHT22;16894;49.456;10.644;2022-08-19T06:26:01;20.00;99.90
30069;DHT22;16894;49.456;10.644;2022-08-19T06:28:27;20.10;99.90
30069;DHT22;16894;49.456;10.644;2022-08-19T06:30:52;20.20;99.90
30069;DHT22;16894;49.456;10.644;2022-08-19T06:33:18;20.20;99.90
30069;DHT22;16894;49.456;10.644;2022-08-19T06:35:44;20.20;99.90
30069;DHT22;16894;49.456;10.644;2022-08-19T06:38:09;20.10;99.90
30069;DHT22;16894;49.456;10.644;2022-08-19T06:40:36;20.20;99.90
30069;DHT22;16894;49.456;10.644;2022-08-19T06:43:03;20.30;99.90
30069;DHT22;16894;49.456;10.644;2022-08-19T06:45:29;20.30;99.90
30069;DHT22;16894;49.456;10.644;2022-08-19T06:47:55;20.40;99.90
30069;DHT22;16894;49.456;10.644;2022-08-19T06:50:22;20.50;99.90
30069;DHT22;16894;49.456;10.644;2022-08-19T06:52:48;20.50;99.90
30069;DHT22;16894;49.456;10.644;2022-08-19T06:55:14;20.60;99.90
30069;DHT22;16894;49.456;10.644;2022-08-19T06:57:41;20.60;99.90
30069;DHT22;16894;49.456;10.644;2022-08-19T07:00:09;20.70;99.90
30069;DHT22;16894;49.456;10.644;2022-08-19T07:02:42;20.80;99.90
30069;DHT22;16894;49.456;10.644;2022-08-19T07:05:08;20.90;99.90
30069;DHT22;16894;49.456;10.644;2022-08-19T07:07:34;20.90;99.90
30069;DHT22;16894;49.456;10.644;2022-08-19T07:10:00;20.90;99.90
30069;DHT22;16894;49.456;10.644;2022-08-19T07:12:29;20.80;99.90
30069;DHT22;16894;49.456;10.644;2022-08-19T07:14:58;20.80;99.90
30069;DHT22;16894;49.456;10.644;2022-08-19T07:17:24;20.80;99.90
30069;DHT22;16894;49.456;10.644;2022-08-19T07:19:50;20.80;99.90
30069;DHT22;16894;49.456;10.644;2022-08-19T07:22:16;20.60;99.90
30069;DHT22;16894;49.456;10.644;2022-08-19T07:24:43;20.60;99.90
30069;DHT22;16894;49.456;10.644;2022-08-19T07:27:08;20.70;99.90
30069;DHT22;16894;49.456;10.644;2022-08-19T07:29:36;20.80;99.90
30069;DHT22;16894;49.456;10.644;2022-08-19T07:32:03;20.80;99.90
30069;DHT22;16894;49.456;10.644;2022-08-19T07:34:30;20.80;99.90
30069;DHT22;16894;49.456;10.644;2022-08-19T07:36:56;20.70;99.90
30069;DHT22;16894;49.456;10.644;2022-08-19T07:39:26;20.80;99.90
30069;DHT22;16894;49.456;10.644;2022-08-19T07:41:52;20.80;99.90
30069;DHT22;16894;49.456;10.644;2022-08-19T07:44:18;20.90;99.90
30069;DHT22;16894;49.456;10.644;2022-08-19T07:46:47;20.90;99.90
30069;DHT22;16894;49.456;10.644;2022-08-19T07:49:14;20.80;99.90
30069;DHT22;16894;49.456;10.644;2022-08-19T07:51:51;20.70;99.90
30069;DHT22;16894;49.456;10.644;2022-08-19T07:54:19;20.70;99.90
30069;DHT22;16894;49.456;10.644;2022-08-19T07:56:44;20.60;99.90
30069;DHT22;16894;49.456;10.644;2022-08-19T07:59:10;20.50;99.90
30069;DHT22;16894;49.456;10.644;2022-08-19T08:01:37;20.50;99.90
30069;DHT22;16894;49.456;10.644;2022-08-19T08:04:02;20.50;99.90
30069;DHT22;16894;49.456;10.644;2022-08-19T08:06:47;20.50;99.90
30069;DHT22;16894;49.456;10.644;2022-08-19T08:09:35;20.50;99.90
30069;DHT22;16894;49.456;10.644;2022-08-19T08:12:05;20.50;99.90
30069;DHT22;16894;49.456;10.644;2022-08-19T08:14:35;20.50;99.90
30069;DHT22;16894;49.456;10.644;2022-08-19T08:17:04;20.50;99.90
30069;DHT22;16894;49.456;10.644;2022-08-19T08:19:30;20.50;99.90
30069;DHT22;16894;49.456;10.644;2022-08-19T08:21:57;20.50;99.90
30069;DHT22;16894;49.456;10.644;2022-08-19T08:24:25;20.60;99.90
30069;DHT22;16894;49.456;10.644;2022-08-19T08:26:51;20.60;99.90
30069;DHT22;16894;49.456;10.644;2022-08-19T08:29:16;20.70;99.90
30069;DHT22;16894;49.456;10.644;2022-08-19T08:31:43;20.70;99.90
30069;DHT22;16894;49.456;10.644;2022-08-19T08:34:10;20.70;99.90
30069;DHT22;16894;49.456;10.644;2022-08-19T08:36:38;20.80;99.90
30069;DHT22;16894;49.456;10.644;2022-08-19T08:39:08;20.90;99.90
30069;DHT22;16894;49.456;10.644;2022-08-19T08:41:59;20.90;99.90
30069;DHT22;16894;49.456;10.644;2022-08-19T08:47:16;21.00;99.90
30069;DHT22;16894;49.456;10.644;2022-08-19T08:49:45;21.10;99.90
30069;DHT22;16894;49.456;10.644;2022-08-19T08:52:22;21.20;99.90
30069;DHT22;16894;49.456;10.644;2022-08-19T08:54:51;21.30;99.90
30069;DHT22;16894;49.456;10.644;2022-08-19T08:57:49;21.30;99.90
30069;DHT22;16894;49.456;10.644;2022-08-19T09:00:28;21.50;99.90
30069;DHT22;16894;49.456;10.644;2022-08-19T09:02:56;21.60;99.90
30069;DHT22;16894;49.456;10.644;2022-08-19T09:05:26;21.70;99.90
30069;DHT22;16894;49.456;10.644;2022-08-19T09:08:00;22.00;99.90
30069;DHT22;16894;49.456;10.644;2022-08-19T09:16:04;22.80;99.90
30069;DHT22;16894;49.456;10.644;2022-08-19T09:18:48;22.80;99.90
30069;DHT22;16894;49.456;10.644;2022-08-19T09:21:17;22.60;99.90
30069;DHT22;16894;49.456;10.644;2022-08-19T09:23:44;22.70;99.90
30069;DHT22;16894;49.456;10.644;2022-08-19T09:26:12;22.70;99.90
30069;DHT22;16894;49.456;10.644;2022-08-19T09:28:40;22.70;99.90
30069;DHT22;16894;49.456;10.644;2022-08-19T09:31:29;22.60;99.90
30069;DHT22;16894;49.456;10.644;2022-08-19T09:33:55;22.50;99.90
30069;DHT22;16894;49.456;10.644;2022-08-19T09:36:27;22.40;99.90
30069;DHT22;16894;49.456;10.644;2022-08-19T09:38:54;22.40;99.90
30069;DHT22;16894;49.456;10.644;2022-08-19T09:41:22;22.50;99.90
30069;DHT22;16894;49.456;10.644;2022-08-19T09:43:50;22.40;99.90
30069;DHT22;16894;49.456;10.644;2022-08-19T09:46:23;22.40;99.90
30069;DHT22;16894;49.456;10.644;2022-08-19T09:48:50;22.40;99.90
30069;DHT22;16894;49.456;10.644;2022-08-19T09:51:18;22.40;99.90
30069;DHT22;16894;49.456;10.644;2022-08-19T09:53:45;22.40;99.90
30069;DHT22;16894;49.456;10.644;2022-08-19T09:56:12;22.30;99.90
30069;DHT22;16894;49.456;10.644;2022-08-19T09:58:39;22.40;99.90
30069;DHT22;16894;49.456;10.644;2022-08-19T10:01:05;22.50;99.90
30069;DHT22;16894;49.456;10.644;2022-08-19T10:03:33;22.40;99.90
30069;DHT22;16894;49.456;10.644;2022-08-19T10:06:00;22.50;99.90
30069;DHT22;16894;49.456;10.644;2022-08-19T10:08:34;22.40;99.90
30069;DHT22;16894;49.456;10.644;2022-08-19T10:11:00;22.50;99.90
30069;DHT22;16894;49.456;10.644;2022-08-19T10:13:29;22.60;99.90
30069;DHT22;16894;49.456;10.644;2022-08-19T10:16:03;22.60;99.90
30069;DHT22;16894;49.456;10.644;2022-08-19T10:18:29;22.70;99.90
30069;DHT22;16894;49.456;10.644;2022-08-19T10:21:02;22.90;99.90
30069;DHT22;16894;49.456;10.644;2022-08-19T10:23:28;23.10;99.90
30069;DHT22;16894;49.456;10.644;2022-08-19T10:25:59;23.20;99.90
30069;DHT22;16894;49.456;10.644;2022-08-19T10:28:25;23.10;99.90
30069;DHT22;16894;49.456;10.644;2022-08-19T10:30:50;23.20;99.90
30069;DHT22;16894;49.456;10.644;2022-08-19T10:33:16;23.10;99.90
30069;DHT22;16894;49.456;10.644;2022-08-19T10:35:41;23.00;99.90
30069;DHT22;16894;49.456;10.644;2022-08-19T10:38:07;23.00;99.90
30069;DHT22;16894;49.456;10.644;2022-08-19T10:40:33;23.00;99.90
30069;DHT22;16894;49.456;10.644;2022-08-19T10:42:59;23.10;99.90
30069;DHT22;16894;49.456;10.644;2022-08-19T10:45:25;23.20;99.90
30069;DHT22;16894;49.456;10.644;2022-08-19T10:47:55;23.20;99.90
30069;DHT22;16894;49.456;10.644;2022-08-19T10:50:21;23.30;99.90
30069;DHT22;16894;49.456;10.644;2022-08-19T10:53:07;23.50;99.90
30069;DHT22;16894;49.456;10.644;2022-08-19T10:55:36;23.50;99.90
30069;DHT22;16894;49.456;10.644;2022-08-19T10:58:21;23.40;99.90
30069;DHT22;16894;49.456;10.644;2022-08-19T11:00:57;23.50;99.90
30069;DHT22;16894;49.456;10.644;2022-08-19T11:03:23;23.50;99.90
30069;DHT22;16894;49.456;10.644;2022-08-19T11:06:04;23.40;99.90
30069;DHT22;16894;49.456;10.644;2022-08-19T11:08:31;23.10;99.90
30069;DHT22;16894;49.456;10.644;2022-08-19T11:10:59;23.20;99.90
30069;DHT22;16894;49.456;10.644;2022-08-19T11:13:27;23.20;99.90
30069;DHT22;16894;49.456;10.644;2022-08-19T11:16:16;23.30;99.90
30069;DHT22;16894;49.456;10.644;2022-08-19T11:18:45;23.30;99.90
30069;DHT22;16894;49.456;10.644;2022-08-19T11:21:24;23.10;99.90
30069;DHT22;16894;49.456;10.644;2022-08-19T11:23:52;23.00;99.90
30069;DHT22;16894;49.456;10.644;2022-08-19T11:26:19;22.90;99.90
30069;DHT22;16894;49.456;10.644;2022-08-19T11:28:45;22.90;99.90
30069;DHT22;16894;49.456;10.644;2022-08-19T11:31:19;22.80;99.90
30069;DHT22;16894;49.456;10.644;2022-08-19T11:33:45;22.80;99.90
30069;DHT22;16894;49.456;10.644;2022-08-19T11:36:12;22.80;99.90
30069;DHT22;16894;49.456;10.644;2022-08-19T11:38:38;22.80;99.90
30069;DHT22;16894;49.456;10.644;2022-08-19T11:41:05;23.00;99.90
30069;DHT22;16894;49.456;10.644;2022-08-19T11:43:33;23.10;99.90
30069;DHT22;16894;49.456;10.644;2022-08-19T11:45:59;23.20;99.90
30069;DHT22;16894;49.456;10.644;2022-08-19T11:48:25;23.30;99.90
30069;DHT22;16894;49.456;10.644;2022-08-19T11:50:52;23.20;99.90
30069;DHT22;16894;49.456;10.644;2022-08-19T11:53:20;23.20;99.90
30069;DHT22;16894;49.456;10.644;2022-08-19T11:55:46;23.00;99.90
30069;DHT22;16894;49.456;10.644;2022-08-19T11:58:13;23.00;99.90
30069;DHT22;16894;49.456;10.644;2022-08-19T12:00:40;23.00;99.90
30069;DHT22;16894;49.456;10.644;2022-08-19T12:03:05;23.00;99.90
30069;DHT22;16894;49.456;10.644;2022-08-19T12:05:31;23.10;99.90
30069;DHT22;16894;49.456;10.644;2022-08-19T12:07:57;23.20;99.90
30069;DHT22;16894;49.456;10.644;2022-08-19T12:10:23;23.10;99.90
30069;DHT22;16894;49.456;10.644;2022-08-19T12:12:49;23.10;99.90
30069;DHT22;16894;49.456;10.644;2022-08-19T12:15:15;23.00;99.90
30069;DHT22;16894;49.456;10.644;2022-08-19T12:17:42;22.80;99.90
30069;DHT22;16894;49.456;10.644;2022-08-19T12:20:09;22.50;99.90
30069;DHT22;16894;49.456;10.644;2022-08-19T12:22:37;22.00;99.90
30069;DHT22;16894;49.456;10.644;2022-08-19T12:25:04;21.60;99.90
30069;DHT22;16894;49.456;10.644;2022-08-19T12:27:30;21.30;99.90
30069;DHT22;16894;49.456;10.644;2022-08-19T12:29:56;21.20;99.90
30069;DHT22;16894;49.456;10.644;2022-08-19T12:32:22;21.00;99.90
30069;DHT22;16894;49.456;10.644;2022-08-19T12:34:50;21.00;99.90
30069;DHT22;16894;49.456;10.644;2022-08-19T12:37:15;21.10;99.90
30069;DHT22;16894;49.456;10.644;2022-08-19T12:39:42;21.10;99.90
30069;DHT22;16894;49.456;10.644;2022-08-19T12:42:12;21.20;99.90
30069;DHT22;16894;49.456;10.644;2022-08-19T12:44:40;21.20;99.90
30069;DHT22;16894;49.456;10.644;2022-08-19T12:47:06;21.10;99.90
30069;DHT22;16894;49.456;10.644;2022-08-19T12:49:32;21.00;99.90
30069;DHT22;16894;49.456;10.644;2022-08-19T12:52:00;20.90;99.90
30069;DHT22;16894;49.456;10.644;2022-08-19T12:54:26;20.90;99.90
30069;DHT22;16894;49.456;10.644;2022-08-19T12:56:52;20.80;99.90
30069;DHT22;16894;49.456;10.644;2022-08-19T12:59:17;20.90;99.90
30069;DHT22;16894;49.456;10.644;2022-08-19T13:01:44;21.00;99.90
30069;DHT22;16894;49.456;10.644;2022-08-19T13:04:10;21.10;99.90
30069;DHT22;16894;49.456;10.644;2022-08-19T13:06:36;21.10;99.90
30069;DHT22;16894;49.456;10.644;2022-08-19T13:09:03;21.10;99.90
30069;DHT22;16894;49.456;10.644;2022-08-19T13:11:29;21.20;99.90
30069;DHT22;16894;49.456;10.644;2022-08-19T13:13:58;21.30;99.90
30069;DHT22;16894;49.456;10.644;2022-08-19T13:16:24;21.30;99.90
30069;DHT22;16894;49.456;10.644;2022-08-19T13:18:50;21.40;99.90
30069;DHT22;16894;49.456;10.644;2022-08-19T13:21:21;21.50;99.90
30069;DHT22;16894;49.456;10.644;2022-08-19T13:23:48;21.40;99.90
30069;DHT22;16894;49.456;10.644;2022-08-19T13:26:15;21.40;99.90
30069;DHT22;16894;49.456;10.644;2022-08-19T13:28:41;21.30;99.90
30069;DHT22;16894;49.456;10.644;2022-08-19T13:31:29;21.20;99.90
30069;DHT22;16894;49.456;10.644;2022-08-19T13:34:14;21.10;99.90
30069;DHT22;16894;49.456;10.644;2022-08-19T13:36:41;21.00;99.90
30069;DHT22;16894;49.456;10.644;2022-08-19T13:39:07;20.90;99.90
30069;DHT22;16894;49.456;10.644;2022-08-19T13:41:34;20.70;99.90
30069;DHT22;16894;49.456;10.644;2022-08-19T13:44:00;20.60;99.90
30069;DHT22;16894;49.456;10.644;2022-08-19T13:46:27;20.60;99.90
30069;DHT22;16894;49.456;10.644;2022-08-19T13:48:56;20.40;99.90
30069;DHT22;16894;49.456;10.644;2022-08-19T13:51:21;20.30;99.90
30069;DHT22;16894;49.456;10.644;2022-08-19T13:53:47;20.20;99.90
30069;DHT22;16894;49.456;10.644;2022-08-19T13:56:15;20.00;99.90
30069;DHT22;16894;49.456;10.644;2022-08-19T13:58:41;20.00;99.90
30069;DHT22;16894;49.456;10.644;2022-08-19T14:01:08;19.90;99.90
30069;DHT22;16894;49.456;10.644;2022-08-19T14:03:34;19.90;99.90
30069;DHT22;16894;49.456;10.644;2022-08-19T14:06:00;19.80;99.90
30069;DHT22;16894;49.456;10.644;2022-08-19T14:08:26;19.80;99.90
30069;DHT22;16894;49.456;10.644;2022-08-19T14:10:56;19.70;99.90
30069;DHT22;16894;49.456;10.644;2022-08-19T14:13:24;19.70;99.90
30069;DHT22;16894;49.456;10.644;2022-08-19T14:15:51;19.70;99.90
30069;DHT22;16894;49.456;10.644;2022-08-19T14:18:18;19.60;99.90
30069;DHT22;16894;49.456;10.644;2022-08-19T14:20:44;19.50;99.90
30069;DHT22;16894;49.456;10.644;2022-08-19T14:23:10;19.40;99.90
30069;DHT22;16894;49.456;10.644;2022-08-19T14:25:37;19.30;99.90
30069;DHT22;16894;49.456;10.644;2022-08-19T14:28:03;19.20;99.90
30069;DHT22;16894;49.456;10.644;2022-08-19T14:30:34;19.10;99.90
30069;DHT22;16894;49.456;10.644;2022-08-19T14:33:02;19.10;99.90
30069;DHT22;16894;49.456;10.644;2022-08-19T14:35:29;19.10;99.90
30069;DHT22;16894;49.456;10.644;2022-08-19T14:37:57;19.10;99.90
30069;DHT22;16894;49.456;10.644;2022-08-19T14:40:26;19.00;99.90
30069;DHT22;16894;49.456;10.644;2022-08-19T14:42:53;19.00;99.90
30069;DHT22;16894;49.456;10.644;2022-08-19T14:45:27;19.00;99.90
30069;DHT22;16894;49.456;10.644;2022-08-19T14:47:53;19.10;99.90
30069;DHT22;16894;49.456;10.644;2022-08-19T14:50:19;19.00;99.90
30069;DHT22;16894;49.456;10.644;2022-08-19T14:52:46;19.00;99.90
30069;DHT22;16894;49.456;10.644;2022-08-19T14:55:13;18.90;99.90
30069;DHT22;16894;49.456;10.644;2022-08-19T14:57:41;18.90;99.90
30069;DHT22;16894;49.456;10.644;2022-08-19T15:00:07;18.90;99.90
30069;DHT22;16894;49.456;10.644;2022-08-19T15:02:37;19.00;99.90
30069;DHT22;16894;49.456;10.644;2022-08-19T15:05:02;18.90;99.90
30069;DHT22;16894;49.456;10.644;2022-08-19T15:07:29;18.90;99.90
30069;DHT22;16894;49.456;10.644;2022-08-19T15:09:55;18.90;99.90
30069;DHT22;16894;49.456;10.644;2022-08-19T15:12:20;18.80;99.90
30069;DHT22;16894;49.456;10.644;2022-08-19T15:14:47;18.80;99.90
30069;DHT22;16894;49.456;10.644;2022-08-19T15:17:16;18.70;99.90
30069;DHT22;16894;49.456;10.644;2022-08-19T15:19:42;18.70;99.90
30069;DHT22;16894;49.456;10.644;2022-08-19T15:22:08;18.70;99.90
30069;DHT22;16894;49.456;10.644;2022-08-19T15:24:34;18.60;99.90
30069;DHT22;16894;49.456;10.644;2022-08-19T15:27:01;18.70;99.90
30069;DHT22;16894;49.456;10.644;2022-08-19T15:29:27;18.80;99.90